Time;durP1;ratioP1;P1;durP2;ratioP2;P2;SDS_P1;SDS_P2;PMS_P1;PMS_P2;Temp;Humidity;BMP_temperature;BMP_pressure;BME280_temperature;BME280_humidity;BME280_pressure;Samples;Min_cycle;Max_cycle;Signal;HPM_P1;HPM_P2
2022/03/09 00:00:57;;;;;;;9.63;5.45;;;2.60;99.90;;;;;;4943822;28;88183;-32
2022/03/09 00:03:22;;;;;;;8.52;5.63;;;2.50;99.90;;;;;;4943230;28;90052;-32
2022/03/09 00:05:48;;;;;;;6.20;5.70;;;2.50;99.90;;;;;;4943324;28;89744;-32
2022/03/09 00:08:14;;;;;;;8.98;6.55;;;2.50;99.90;;;;;;4989457;23;89906;-34
2022/03/09 00:10:40;;;;;;;7.70;6.25;;;2.50;99.90;;;;;;4962399;28;89817;-36
2022/03/09 00:13:05;;;;;;;6.32;5.70;;;2.50;99.90;;;;;;4963072;28;90463;-29
2022/03/09 00:15:31;;;;;;;7.43;5.88;;;2.40;99.90;;;;;;4962239;28;89167;-30
2022/03/09 00:17:56;;;;;;;7.32;6.55;;;2.40;99.90;;;;;;4962834;28;90288;-30
2022/03/09 00:20:22;;;;;;;6.60;5.78;;;2.40;99.90;;;;;;4962624;28;90311;-33
2022/03/09 00:22:47;;;;;;;7.53;6.72;;;2.40;99.90;;;;;;4962742;28;90267;-31
2022/03/09 00:25:13;;;;;;;7.60;6.22;;;2.40;99.90;;;;;;4962327;28;89629;-30
2022/03/09 00:27:38;;;;;;;7.60;6.35;;;2.40;99.90;;;;;;4962282;28;89355;-32
2022/03/09 00:30:05;;;;;;;10.23;7.53;;;2.40;99.90;;;;;;4963392;28;88756;-30
2022/03/09 00:32:31;;;;;;;7.97;6.28;;;2.40;99.90;;;;;;4961853;28;90497;-32
2022/03/09 00:34:56;;;;;;;8.57;7.25;;;2.30;99.90;;;;;;4962871;28;89518;-32
2022/03/09 00:37:22;;;;;;;9.15;6.80;;;2.30;99.90;;;;;;4961821;28;90775;-31
2022/03/09 00:39:47;;;;;;;9.80;6.93;;;2.30;99.90;;;;;;4962700;28;88899;-33
2022/03/09 00:42:13;;;;;;;8.30;7.22;;;2.30;99.90;;;;;;4962457;28;91843;-32
2022/03/09 00:44:39;;;;;;;7.47;6.45;;;2.30;99.90;;;;;;4961050;28;91247;-32
2022/03/09 00:47:04;;;;;;;8.27;6.95;;;2.30;99.90;;;;;;4962975;28;88878;-33
2022/03/09 00:49:30;;;;;;;7.50;6.35;;;2.30;99.90;;;;;;4962181;28;88586;-34
2022/03/09 00:51:55;;;;;;;8.60;7.80;;;2.30;99.90;;;;;;4962279;28;90241;-32
2022/03/09 00:54:21;;;;;;;8.82;7.53;;;2.30;99.90;;;;;;4961913;28;91494;-31
2022/03/09 00:56:47;;;;;;;11.38;7.95;;;2.30;99.90;;;;;;4962858;28;89975;-33
2022/03/09 00:59:12;;;;;;;8.73;7.38;;;2.20;99.90;;;;;;4962153;28;88811;-33
2022/03/09 01:01:39;;;;;;;12.75;8.48;;;2.20;99.90;;;;;;4961220;28;90330;-31
2022/03/09 01:04:04;;;;;;;10.40;7.90;;;2.20;99.90;;;;;;4962293;28;88986;-32
2022/03/09 01:06:30;;;;;;;10.50;8.20;;;2.20;99.90;;;;;;4960319;28;89396;-32
2022/03/09 01:08:57;;;;;;;10.95;7.95;;;2.10;99.90;;;;;;4961110;28;90403;-34
2022/03/09 01:11:23;;;;;;;10.20;7.53;;;2.10;99.90;;;;;;4961437;28;89369;-32
2022/03/09 01:13:48;;;;;;;11.68;8.05;;;2.10;99.90;;;;;;4961980;28;89874;-30
2022/03/09 01:16:14;;;;;;;10.23;7.78;;;2.10;99.90;;;;;;4961909;28;89991;-34
2022/03/09 01:18:39;;;;;;;11.05;8.25;;;2.00;99.90;;;;;;4961592;28;89327;-33
2022/03/09 01:21:05;;;;;;;6.97;6.38;;;2.00;99.90;;;;;;4961591;28;90257;-33
2022/03/09 01:23:30;;;;;;;8.05;7.25;;;1.90;99.90;;;;;;4961437;28;89737;-34
2022/03/09 01:25:56;;;;;;;9.65;6.97;;;1.90;99.90;;;;;;4961787;28;89621;-33
2022/03/09 01:28:22;;;;;;;9.90;7.50;;;1.90;99.90;;;;;;4961962;28;89235;-30
2022/03/09 01:30:47;;;;;;;7.60;6.90;;;1.80;99.90;;;;;;4961317;28;90977;-30
2022/03/09 01:33:13;;;;;;;12.20;7.63;;;1.80;99.90;;;;;;4961329;28;89954;-33
2022/03/09 01:35:39;;;;;;;10.07;8.30;;;1.80;99.90;;;;;;4960987;28;90115;-34
2022/03/09 01:38:04;;;;;;;9.52;7.53;;;1.70;99.90;;;;;;4961739;28;88135;-31
2022/03/09 01:40:30;;;;;;;10.27;7.80;;;1.70;99.90;;;;;;4961361;28;90779;-30
2022/03/09 01:42:56;;;;;;;9.35;8.02;;;1.70;99.90;;;;;;4960526;28;90376;-34
2022/03/09 01:45:22;;;;;;;8.50;7.13;;;1.70;99.90;;;;;;4961208;28;89729;-35
2022/03/09 01:47:48;;;;;;;9.07;8.18;;;1.70;99.90;;;;;;4960536;28;89891;-31
2022/03/09 01:50:14;;;;;;;11.40;8.55;;;1.80;99.90;;;;;;4961547;28;90302;-36
2022/03/09 01:52:41;;;;;;;9.43;7.40;;;1.80;99.90;;;;;;4961040;28;90054;-30
2022/03/09 01:55:07;;;;;;;10.55;9.18;;;1.80;99.90;;;;;;4960825;28;88802;-34
2022/03/09 01:57:33;;;;;;;9.63;7.93;;;1.70;99.90;;;;;;4960710;28;90169;-35
2022/03/09 02:00:00;;;;;;;13.23;10.05;;;1.70;99.90;;;;;;4961292;28;90952;-32
2022/03/09 02:02:26;;;;;;;8.38;7.50;;;1.70;99.90;;;;;;4959802;28;89818;-32
2022/03/09 02:04:51;;;;;;;13.23;8.65;;;1.60;99.90;;;;;;4961295;28;89300;-34
2022/03/09 02:07:17;;;;;;;14.88;9.15;;;1.50;99.90;;;;;;4960511;28;88398;-33
2022/03/09 02:09:45;;;;;;;10.90;9.50;;;1.40;99.90;;;;;;4960351;28;90767;-31
2022/03/09 02:12:14;;;;;;;10.25;7.72;;;1.40;99.90;;;;;;4960716;28;89682;-30
2022/03/09 02:14:51;;;;;;;11.98;8.50;;;1.30;99.90;;;;;;4961053;28;89670;-31
2022/03/09 02:17:25;;;;;;;9.57;8.35;;;1.40;99.90;;;;;;4960593;28;89773;-34
2022/03/09 02:19:51;;;;;;;13.25;8.95;;;1.40;99.90;;;;;;4960760;28;89333;-32
2022/03/09 02:22:20;;;;;;;10.05;9.02;;;1.40;99.90;;;;;;4960049;28;90957;-31
2022/03/09 02:24:50;;;;;;;11.13;8.48;;;1.30;99.90;;;;;;4961465;28;89128;-32
2022/03/09 02:27:17;;;;;;;9.35;8.20;;;1.30;99.90;;;;;;4960929;28;87887;-35
2022/03/09 02:29:42;;;;;;;8.95;8.05;;;1.30;99.90;;;;;;4959926;28;89830;-31
2022/03/09 02:32:08;;;;;;;11.40;8.57;;;1.30;99.90;;;;;;4960572;28;90135;-31
2022/03/09 02:34:35;;;;;;;12.10;9.70;;;1.30;99.90;;;;;;4960550;28;89254;-33
2022/03/09 02:37:01;;;;;;;12.07;8.60;;;1.30;99.90;;;;;;4960174;28;87987;-30
2022/03/09 02:39:26;;;;;;;10.02;8.20;;;1.20;99.90;;;;;;4960390;28;89342;-34
2022/03/09 02:41:52;;;;;;;11.90;9.20;;;1.10;99.90;;;;;;4959776;28;90015;-31
2022/03/09 02:44:18;;;;;;;9.45;8.48;;;1.10;99.90;;;;;;4960239;28;89915;-34
2022/03/09 02:46:43;;;;;;;10.48;8.88;;;1.00;99.90;;;;;;4960313;28;89891;-33
2022/03/09 02:49:09;;;;;;;14.82;8.75;;;0.90;99.90;;;;;;4960184;28;90219;-35
2022/03/09 02:51:34;;;;;;;11.82;9.30;;;0.90;99.90;;;;;;4960158;28;89741;-33
2022/03/09 02:54:00;;;;;;;14.48;10.07;;;0.80;99.90;;;;;;4960050;28;89494;-30
2022/03/09 02:56:26;;;;;;;13.52;8.90;;;0.90;99.90;;;;;;4960203;28;87771;-33
2022/03/09 02:58:51;;;;;;;11.35;8.38;;;0.90;99.90;;;;;;4960185;28;90011;-30
2022/03/09 03:01:17;;;;;;;12.38;10.27;;;0.90;99.90;;;;;;4960363;28;88803;-34
2022/03/09 03:03:44;;;;;;;9.80;8.88;;;0.90;99.90;;;;;;4959419;28;89779;-34
2022/03/09 03:06:11;;;;;;;29.23;9.77;;;1.00;99.90;;;;;;4960150;28;87675;-30
2022/03/09 03:08:38;;;;;;;13.52;9.57;;;1.00;99.90;;;;;;4959733;28;90229;-35
2022/03/09 03:11:08;;;;;;;11.32;8.85;;;1.00;99.90;;;;;;4959821;28;90457;-31
2022/03/09 03:13:37;;;;;;;11.18;10.18;;;1.00;99.90;;;;;;4960081;28;89732;-30
2022/03/09 03:16:04;;;;;;;11.18;8.65;;;1.00;99.90;;;;;;4959793;28;89164;-33
2022/03/09 03:18:29;;;;;;;12.80;8.55;;;1.00;99.90;;;;;;4959671;28;89756;-33
2022/03/09 03:20:55;;;;;;;11.35;9.30;;;1.00;99.90;;;;;;4960490;28;89894;-33
2022/03/09 03:23:26;;;;;;;10.45;9.00;;;1.00;99.90;;;;;;4958177;28;90352;-32
2022/03/09 03:25:52;;;;;;;12.57;9.90;;;1.00;99.90;;;;;;4960794;28;88106;-31
2022/03/09 03:28:19;;;;;;;15.27;10.07;;;0.90;99.90;;;;;;4958753;28;90437;-32
2022/03/09 03:30:45;;;;;;;11.77;9.07;;;0.90;99.90;;;;;;4958169;28;88627;-35
2022/03/09 03:33:12;;;;;;;13.30;9.90;;;1.00;99.90;;;;;;4959844;28;89066;-33
2022/03/09 03:35:38;;;;;;;11.93;10.27;;;0.90;99.90;;;;;;4959032;28;89246;-33
2022/03/09 03:38:03;;;;;;;12.82;10.80;;;0.90;99.90;;;;;;4959278;28;91107;-30
2022/03/09 03:40:29;;;;;;;12.52;10.18;;;0.90;99.90;;;;;;4958923;28;89560;-30
2022/03/09 03:42:55;;;;;;;16.17;10.65;;;0.90;99.90;;;;;;4957337;28;89887;-34
2022/03/09 03:45:21;;;;;;;12.30;9.32;;;0.90;99.90;;;;;;4959060;28;89648;-30
2022/03/09 03:47:47;;;;;;;13.07;10.40;;;0.90;99.90;;;;;;4959129;28;88721;-32
2022/03/09 03:50:13;;;;;;;12.07;8.43;;;0.90;99.90;;;;;;4959379;28;90033;-30
2022/03/09 03:52:38;;;;;;;12.55;9.75;;;0.90;99.90;;;;;;4959392;28;89561;-31
2022/03/09 03:55:05;;;;;;;14.25;10.63;;;0.90;99.90;;;;;;4959300;28;88940;-33
2022/03/09 03:57:30;;;;;;;11.25;10.07;;;0.80;99.90;;;;;;4958547;28;89992;-35
2022/03/09 03:59:56;;;;;;;13.38;11.00;;;0.80;99.90;;;;;;4958114;28;90923;-33
2022/03/09 04:02:22;;;;;;;11.40;10.15;;;0.70;99.90;;;;;;4958791;28;90558;-31
2022/03/09 04:04:47;;;;;;;9.77;8.75;;;0.60;99.90;;;;;;4958984;28;88314;-32
2022/03/09 04:07:13;;;;;;;13.07;10.38;;;0.50;99.90;;;;;;4959680;28;90487;-31
2022/03/09 04:09:38;;;;;;;12.95;9.75;;;0.50;99.90;;;;;;4957988;28;90458;-31
2022/03/09 04:12:04;;;;;;;9.88;8.88;;;0.50;99.90;;;;;;4958307;28;89528;-30
2022/03/09 04:14:30;;;;;;;12.25;9.38;;;0.50;99.90;;;;;;4957527;28;88583;-31
2022/03/09 04:16:55;;;;;;;13.65;9.30;;;0.40;99.90;;;;;;4959503;28;90503;-31
2022/03/09 04:19:21;;;;;;;17.73;11.25;;;0.40;99.90;;;;;;4958841;28;90153;-31
2022/03/09 04:21:46;;;;;;;13.18;10.18;;;0.40;99.90;;;;;;4958490;28;89869;-34
2022/03/09 04:24:12;;;;;;;14.82;10.10;;;0.40;99.90;;;;;;4957741;28;90724;-30
2022/03/09 04:26:38;;;;;;;14.65;10.18;;;0.50;99.90;;;;;;4958499;28;90725;-31
2022/03/09 04:29:03;;;;;;;10.50;9.50;;;0.50;99.90;;;;;;4958555;28;89726;-32
2022/03/09 04:31:29;;;;;;;15.32;11.05;;;0.50;99.90;;;;;;4958988;28;89199;-34
2022/03/09 04:33:55;;;;;;;14.85;10.82;;;0.50;99.90;;;;;;4958194;28;89186;-32
2022/03/09 04:36:21;;;;;;;13.07;10.77;;;0.40;99.90;;;;;;4958232;28;89751;-32
2022/03/09 04:38:46;;;;;;;15.57;11.63;;;0.40;99.90;;;;;;4958521;28;89727;-31
2022/03/09 04:41:12;;;;;;;12.00;9.80;;;0.40;99.90;;;;;;4959465;28;88569;-32
2022/03/09 04:43:37;;;;;;;13.02;10.45;;;0.40;99.90;;;;;;4962397;28;90262;-30
2022/03/09 04:46:03;;;;;;;13.68;11.25;;;0.40;99.90;;;;;;4961299;28;90792;-31
2022/03/09 04:48:29;;;;;;;14.90;10.35;;;0.30;99.90;;;;;;4960663;28;91274;-34
2022/03/09 04:50:54;;;;;;;15.30;11.27;;;0.30;99.90;;;;;;4961313;28;90762;-30
2022/03/09 04:53:20;;;;;;;13.48;11.60;;;0.30;99.90;;;;;;4961639;28;89520;-31
2022/03/09 04:55:46;;;;;;;17.38;10.75;;;0.20;99.90;;;;;;4961629;28;89781;-31
2022/03/09 04:58:11;;;;;;;19.08;11.65;;;0.30;99.90;;;;;;4961242;28;89734;-32
2022/03/09 05:00:37;;;;;;;14.10;11.52;;;0.30;99.90;;;;;;4961461;28;90183;-30
2022/03/09 05:03:03;;;;;;;13.48;10.57;;;0.20;99.90;;;;;;4961233;28;88798;-31
2022/03/09 05:05:29;;;;;;;13.60;11.55;;;0.20;99.90;;;;;;4961328;28;90447;-34
2022/03/09 05:07:54;;;;;;;15.82;11.15;;;0.20;99.90;;;;;;4961367;28;90890;-33
2022/03/09 05:10:20;;;;;;;13.68;10.45;;;0.20;99.90;;;;;;4960931;28;88599;-31
2022/03/09 05:12:46;;;;;;;12.55;9.98;;;0.20;99.90;;;;;;4961251;28;89011;-30
2022/03/09 05:15:11;;;;;;;13.57;10.77;;;0.20;99.90;;;;;;4961074;28;90277;-31
2022/03/09 05:17:44;;;;;;;15.68;10.32;;;0.20;99.90;;;;;;4960936;28;89848;-32
2022/03/09 05:20:11;;;;;;;12.90;10.60;;;0.20;99.90;;;;;;4961165;28;89310;-30
2022/03/09 05:22:36;;;;;;;13.73;10.93;;;0.20;99.90;;;;;;4960728;28;88984;-31
2022/03/09 05:25:03;;;;;;;13.02;9.95;;;0.20;99.90;;;;;;4960790;28;90482;-30
2022/03/09 05:27:28;;;;;;;13.10;11.38;;;0.10;99.90;;;;;;4961586;28;89531;-32
2022/03/09 05:29:54;;;;;;;13.90;10.30;;;0.10;99.90;;;;;;4961321;28;90771;-31
2022/03/09 05:32:20;;;;;;;15.00;12.07;;;0.00;99.90;;;;;;4960167;28;88529;-31
2022/03/09 05:34:47;;;;;;;18.98;11.43;;;0.00;99.90;;;;;;4960748;28;90286;-32
2022/03/09 05:37:13;;;;;;;17.73;11.77;;;-0.10;99.90;;;;;;4960370;28;90724;-31
2022/03/09 05:39:38;;;;;;;14.20;10.35;;;0.00;99.90;;;;;;4959955;28;90803;-35
2022/03/09 05:42:04;;;;;;;12.43;11.13;;;0.00;99.90;;;;;;4959726;28;88494;-30
2022/03/09 05:44:30;;;;;;;11.82;10.63;;;0.00;99.90;;;;;;4959961;28;89791;-30
2022/03/09 05:46:57;;;;;;;19.65;11.25;;;0.00;99.90;;;;;;4960775;28;89756;-34
2022/03/09 05:49:22;;;;;;;11.27;10.10;;;-0.10;99.90;;;;;;4960246;28;88865;-34
2022/03/09 05:51:49;;;;;;;14.15;10.77;;;-0.20;99.90;;;;;;4960686;28;89286;-32
2022/03/09 05:54:15;;;;;;;14.38;11.13;;;-0.10;99.90;;;;;;4960227;28;90232;-33
2022/03/09 05:56:41;;;;;;;17.60;11.55;;;-0.20;99.90;;;;;;4959885;28;89799;-33
2022/03/09 05:59:07;;;;;;;14.27;11.38;;;-0.20;99.90;;;;;;4960205;28;89782;-32
2022/03/09 06:01:32;;;;;;;17.70;11.98;;;-0.20;99.90;;;;;;4960381;28;88949;-31
2022/03/09 06:03:58;;;;;;;14.13;11.27;;;-0.20;99.90;;;;;;4960190;28;90059;-34
2022/03/09 06:06:24;;;;;;;15.18;11.82;;;-0.20;99.90;;;;;;4960410;28;89682;-31
2022/03/09 06:08:50;;;;;;;13.68;11.93;;;-0.20;99.90;;;;;;4959458;28;89623;-31
2022/03/09 06:11:15;;;;;;;17.35;12.18;;;-0.20;99.90;;;;;;4960408;28;89410;-35
2022/03/09 06:13:41;;;;;;;15.15;12.27;;;-0.20;99.90;;;;;;4960537;28;89128;-31
2022/03/09 06:16:06;;;;;;;16.85;12.10;;;-0.20;99.90;;;;;;4960239;28;89571;-33
2022/03/09 06:18:32;;;;;;;13.13;10.98;;;-0.20;99.90;;;;;;4959897;28;90428;-30
2022/03/09 06:20:58;;;;;;;20.52;11.80;;;-0.20;99.90;;;;;;4959820;28;89459;-32
2022/03/09 06:23:23;;;;;;;15.02;11.73;;;-0.20;99.90;;;;;;4960346;28;89174;-31
2022/03/09 06:25:49;;;;;;;13.98;12.55;;;-0.20;99.90;;;;;;4959595;28;90662;-31
2022/03/09 06:28:15;;;;;;;13.05;10.43;;;-0.20;99.90;;;;;;4959850;28;94423;-36
2022/03/09 06:30:41;;;;;;;15.30;10.57;;;-0.10;99.90;;;;;;4958455;28;88011;-31
2022/03/09 06:33:07;;;;;;;13.35;11.70;;;-0.20;99.90;;;;;;4959483;28;90004;-33
2022/03/09 06:35:32;;;;;;;14.43;10.90;;;-0.20;99.90;;;;;;4960040;28;89044;-33
2022/03/09 06:37:58;;;;;;;13.73;11.63;;;-0.20;99.90;;;;;;4959474;28;90943;-32
2022/03/09 06:40:25;;;;;;;18.10;13.00;;;-0.20;99.90;;;;;;4959914;28;89956;-34
2022/03/09 06:42:51;;;;;;;14.80;11.80;;;-0.20;99.90;;;;;;4959812;28;89566;-32
2022/03/09 06:45:16;;;;;;;19.17;12.35;;;-0.20;99.90;;;;;;4959147;28;90009;-31
2022/03/09 06:47:42;;;;;;;14.13;10.50;;;0.00;99.90;;;;;;4960191;28;90430;-35
2022/03/09 06:50:10;;;;;;;12.68;10.77;;;0.00;99.90;;;;;;4958959;28;89411;-32
2022/03/09 06:52:36;;;;;;;15.20;12.30;;;0.10;99.90;;;;;;4958800;28;90704;-32
2022/03/09 06:55:03;;;;;;;19.42;13.35;;;0.10;99.90;;;;;;4959834;28;90419;-30
2022/03/09 06:57:32;;;;;;;13.07;11.23;;;0.10;99.90;;;;;;4959499;28;89916;-31
2022/03/09 06:59:59;;;;;;;16.38;12.30;;;0.20;99.90;;;;;;4959802;28;89721;-33
2022/03/09 07:02:24;;;;;;;12.60;10.05;;;0.20;99.90;;;;;;4958999;28;90073;-29
2022/03/09 07:04:50;;;;;;;14.82;11.95;;;0.30;99.90;;;;;;4958698;28;89494;-30
2022/03/09 07:07:15;;;;;;;16.17;12.15;;;0.40;99.90;;;;;;4958975;28;90546;-33
2022/03/09 07:09:41;;;;;;;19.65;12.52;;;0.50;99.90;;;;;;4959110;28;88173;-31
2022/03/09 07:12:07;;;;;;;13.68;11.40;;;0.50;99.90;;;;;;4957390;28;92106;-34
2022/03/09 07:14:33;;;;;;;15.45;12.40;;;0.60;99.90;;;;;;4958162;28;90914;-35
2022/03/09 07:16:58;;;;;;;13.43;12.02;;;0.70;99.90;;;;;;4959676;28;90486;-33
2022/03/09 07:19:24;;;;;;;16.17;12.88;;;0.80;99.90;;;;;;4959067;28;89129;-31
2022/03/09 07:21:50;;;;;;;16.33;12.88;;;0.90;99.90;;;;;;4959019;28;90353;-32
2022/03/09 07:24:15;;;;;;;16.77;13.50;;;1.10;99.90;;;;;;4958809;28;90596;-34
2022/03/09 07:26:42;;;;;;;13.65;12.25;;;1.40;99.90;;;;;;4959609;28;90183;-35
2022/03/09 07:29:09;;;;;;;16.85;11.45;;;1.60;99.90;;;;;;4960241;28;88020;-31
2022/03/09 07:31:35;;;;;;;16.95;13.57;;;1.90;99.90;;;;;;4958778;28;90223;-32
2022/03/09 07:34:01;;;;;;;21.85;12.77;;;2.20;99.90;;;;;;4958973;28;88684;-34
2022/03/09 07:36:26;;;;;;;16.27;12.27;;;2.30;99.90;;;;;;4958819;28;90785;-34
2022/03/09 07:38:52;;;;;;;17.13;12.77;;;2.50;99.90;;;;;;4958379;28;89431;-32
2022/03/09 07:41:17;;;;;;;16.83;12.57;;;2.60;99.90;;;;;;4959130;28;90581;-31
2022/03/09 07:43:43;;;;;;;18.45;11.35;;;2.70;99.90;;;;;;4958131;28;89429;-32
2022/03/09 07:46:09;;;;;;;20.65;14.30;;;2.80;99.90;;;;;;4959440;28;89770;-34
2022/03/09 07:48:35;;;;;;;14.85;12.90;;;2.80;99.90;;;;;;4957900;28;89222;-33
2022/03/09 07:51:00;;;;;;;14.07;11.15;;;2.80;99.90;;;;;;4958627;28;89965;-30
2022/03/09 07:53:26;;;;;;;17.60;13.68;;;2.90;99.90;;;;;;4958715;28;89783;-30
2022/03/09 07:55:52;;;;;;;20.02;13.70;;;3.00;99.90;;;;;;4959026;28;89732;-31
2022/03/09 07:58:17;;;;;;;13.18;11.63;;;3.10;99.90;;;;;;4958641;28;88829;-30
2022/03/09 08:00:43;;;;;;;17.95;12.48;;;3.30;99.90;;;;;;4958048;28;90154;-30
2022/03/09 08:03:09;;;;;;;17.33;13.20;;;3.40;99.90;;;;;;4958083;28;90716;-35
2022/03/09 08:05:35;;;;;;;14.23;12.70;;;3.50;99.90;;;;;;4958848;28;90335;-34
2022/03/09 08:08:00;;;;;;;17.80;13.43;;;3.60;99.90;;;;;;4958836;28;88971;-32
2022/03/09 08:10:26;;;;;;;16.77;11.45;;;3.80;99.90;;;;;;4958349;28;90158;-31
2022/03/09 08:12:52;;;;;;;13.05;11.63;;;3.90;99.90;;;;;;4956716;28;89028;-33
2022/03/09 08:15:18;;;;;;;20.58;13.77;;;4.10;99.90;;;;;;4958813;28;89928;-31
2022/03/09 08:17:44;;;;;;;15.02;12.30;;;4.30;99.90;;;;;;4961300;28;88630;-33
2022/03/09 08:20:10;;;;;;;20.63;12.60;;;4.40;99.90;;;;;;4962106;28;90338;-35
2022/03/09 08:22:36;;;;;;;12.63;11.32;;;4.50;99.90;;;;;;4962479;28;90250;-31
2022/03/09 08:25:02;;;;;;;16.08;12.02;;;4.60;99.90;;;;;;4961654;28;89413;-34
2022/03/09 08:27:27;;;;;;;15.43;12.80;;;4.70;99.90;;;;;;4961994;28;90748;-30
2022/03/09 08:29:53;;;;;;;15.10;12.05;;;4.90;99.90;;;;;;4962169;28;90216;-31
2022/03/09 08:32:22;;;;;;;17.85;13.73;;;5.10;99.90;;;;;;4961488;28;89727;-33
2022/03/09 08:34:48;;;;;;;16.90;12.77;;;5.30;99.90;;;;;;4961351;28;88924;-35
2022/03/09 08:37:14;;;;;;;18.92;12.85;;;5.50;99.90;;;;;;4962235;28;88054;-31
2022/03/09 08:39:43;;;;;;;16.45;12.27;;;5.70;99.90;;;;;;4961546;28;90099;-31
2022/03/09 08:42:09;;;;;;;18.77;12.85;;;5.90;99.50;;;;;;4961698;28;90242;-32
2022/03/09 08:44:34;;;;;;;17.90;12.75;;;6.10;94.00;;;;;;4961165;28;90188;-33
2022/03/09 08:47:00;;;;;;;19.75;12.98;;;6.20;93.20;;;;;;4961554;28;89070;-30
2022/03/09 08:49:26;;;;;;;15.73;12.40;;;6.30;95.50;;;;;;4961716;28;90553;-35
2022/03/09 08:51:51;;;;;;;20.13;13.10;;;6.50;91.80;;;;;;4961525;28;90819;-30
2022/03/09 08:54:17;;;;;;;16.45;12.25;;;6.60;91.00;;;;;;4961362;28;90745;-35
2022/03/09 08:56:42;;;;;;;19.25;13.75;;;6.80;90.90;;;;;;4962015;28;88936;-31
2022/03/09 08:59:08;;;;;;;15.20;12.15;;;6.90;92.10;;;;;;4961085;28;90143;-33
2022/03/09 09:01:34;;;;;;;16.27;12.80;;;7.20;90.40;;;;;;4961284;28;90077;-31
2022/03/09 09:03:59;;;;;;;14.57;11.32;;;7.40;84.40;;;;;;4960745;28;90169;-30
2022/03/09 09:06:25;;;;;;;15.25;12.82;;;7.50;77.40;;;;;;4961184;28;89211;-36
2022/03/09 09:08:51;;;;;;;12.25;10.20;;;7.60;75.90;;;;;;4960410;28;90535;-33
2022/03/09 09:11:16;;;;;;;15.30;10.73;;;7.70;73.80;;;;;;4960443;28;89996;-34
2022/03/09 09:13:42;;;;;;;12.98;11.63;;;7.90;71.70;;;;;;4961074;28;89883;-31
2022/03/09 09:16:08;;;;;;;15.98;10.93;;;8.00;70.00;;;;;;4960382;28;89170;-31
2022/03/09 09:18:33;;;;;;;12.43;11.23;;;8.10;69.40;;;;;;4960901;28;89002;-32
2022/03/09 09:20:59;;;;;;;14.82;11.30;;;8.30;68.50;;;;;;4960889;28;90331;-35
2022/03/09 09:23:25;;;;;;;13.80;11.60;;;8.50;66.40;;;;;;4960508;28;90035;-33
2022/03/09 09:25:50;;;;;;;12.55;10.50;;;8.70;63.50;;;;;;4961545;28;88919;-30
2022/03/09 09:28:17;;;;;;;12.32;9.90;;;8.90;62.10;;;;;;4959366;28;90578;-30
2022/03/09 09:30:43;;;;;;;12.10;10.88;;;9.00;59.80;;;;;;4961639;28;89616;-34
2022/03/09 09:33:09;;;;;;;12.07;10.05;;;9.10;59.40;;;;;;4961330;28;91275;-33
2022/03/09 09:35:35;;;;;;;17.77;11.68;;;9.20;59.20;;;;;;4960332;28;90060;-34
2022/03/09 09:38:06;;;;;;;13.00;9.88;;;9.30;58.20;;;;;;4960895;28;89317;-31
2022/03/09 09:40:41;;;;;;;10.95;9.93;;;9.40;58.50;;;;;;4960675;28;91025;-33
2022/03/09 09:43:09;;;;;;;22.15;12.07;;;9.60;56.90;;;;;;4961456;28;90329;-33
2022/03/09 09:45:35;;;;;;;28.90;11.68;;;9.60;56.50;;;;;;4960088;28;89319;-32
2022/03/09 09:48:06;;;;;;;15.07;11.70;;;9.80;58.60;;;;;;4961039;28;90104;-32
2022/03/09 09:50:33;;;;;;;11.95;10.35;;;10.00;56.30;;;;;;4960215;28;90272;-32
2022/03/09 09:53:01;;;;;;;15.05;10.85;;;10.10;55.90;;;;;;4960581;28;89758;-34
2022/03/09 09:55:28;;;;;;;12.82;9.43;;;10.20;54.00;;;;;;4960994;28;87960;-31
2022/03/09 09:57:55;;;;;;;12.68;10.65;;;10.20;54.80;;;;;;4961961;28;90498;-32
2022/03/09 10:00:21;;;;;;;18.63;10.32;;;10.20;55.80;;;;;;4959566;28;89644;-33
2022/03/09 10:02:47;;;;;;;14.07;9.80;;;10.40;56.50;;;;;;4960607;28;89566;-33
2022/03/09 10:05:15;;;;;;;13.55;9.40;;;10.60;56.60;;;;;;4960441;28;90909;-30
2022/03/09 10:08:08;;;;;;;19.92;10.85;;;10.80;55.00;;;;;;4960989;28;89243;-29
2022/03/09 10:10:45;;;;;;;16.60;9.82;;;10.80;53.40;;;;;;4957326;28;90812;-32
2022/03/09 10:13:15;;;;;;;18.02;10.80;;;10.90;52.60;;;;;;4960701;28;89434;-35
2022/03/09 10:15:42;;;;;;;16.23;10.05;;;10.80;52.90;;;;;;4960376;28;89342;-30
2022/03/09 10:18:20;;;;;;;13.20;10.48;;;10.80;53.40;;;;;;4959890;28;90673;-37
2022/03/09 10:20:48;;;;;;;11.50;10.35;;;10.70;52.80;;;;;;4960357;28;89972;-35
2022/03/09 10:23:15;;;;;;;16.52;10.95;;;10.80;53.90;;;;;;4960810;28;89604;-31
2022/03/09 10:25:41;;;;;;;24.65;22.13;;;10.90;53.20;;;;;;4960240;28;89806;-34
2022/03/09 10:28:09;;;;;;;18.33;10.43;;;10.90;53.70;;;;;;4959253;28;90229;-33
2022/03/09 10:30:39;;;;;;;14.07;10.07;;;11.00;53.90;;;;;;4959004;28;89381;-33
2022/03/09 10:33:06;;;;;;;17.88;12.15;;;11.20;52.30;;;;;;4959976;28;89406;-35
2022/03/09 10:35:32;;;;;;;12.23;10.47;;;11.20;51.80;;;;;;4960042;28;89686;-33
2022/03/09 10:38:01;;;;;;;12.38;10.07;;;11.10;52.60;;;;;;4959495;28;89911;-30
2022/03/09 10:40:29;;;;;;;12.00;9.90;;;11.20;52.60;;;;;;4958700;28;89185;-32
2022/03/09 10:43:18;;;;;;;12.55;11.27;;;11.20;52.10;;;;;;4960203;28;89842;-33
2022/03/09 10:46:08;;;;;;;15.52;10.35;;;11.30;52.20;;;;;;4959863;28;89158;-30
2022/03/09 10:49:03;;;;;;;15.93;10.18;;;11.30;51.80;;;;;;4959384;28;89277;-31
2022/03/09 10:51:30;;;;;;;14.32;10.98;;;11.30;51.70;;;;;;4957421;28;89703;-34
2022/03/09 10:53:57;;;;;;;19.73;10.83;;;11.40;52.60;;;;;;4959711;28;89642;-34
2022/03/09 10:56:23;;;;;;;48.63;14.90;;;11.60;53.50;;;;;;4959159;28;90004;-33
2022/03/09 10:58:49;;;;;;;14.18;10.70;;;11.70;52.30;;;;;;4959239;28;90231;-32
2022/03/09 11:01:20;;;;;;;14.20;10.73;;;11.70;49.80;;;;;;4959848;28;89674;-38
2022/03/09 11:03:47;;;;;;;13.02;10.88;;;11.70;50.10;;;;;;4960280;28;89549;-31
2022/03/09 11:06:14;;;;;;;12.40;9.27;;;11.70;51.10;;;;;;4959726;28;88411;-30
2022/03/09 11:08:43;;;;;;;11.15;9.25;;;11.70;50.80;;;;;;4958767;28;90175;-33
2022/03/09 11:11:09;;;;;;;16.33;10.85;;;11.70;50.20;;;;;;4959598;28;89691;-33
2022/03/09 11:13:38;;;;;;;13.75;10.20;;;11.80;50.80;;;;;;4959628;28;89686;-36
2022/03/09 11:16:05;;;;;;;12.15;9.85;;;11.90;49.50;;;;;;4959849;28;87672;-32
2022/03/09 11:18:32;;;;;;;12.88;9.43;;;11.90;49.70;;;;;;4960233;28;90131;-32
2022/03/09 11:21:00;;;;;;;11.30;9.05;;;12.00;48.90;;;;;;4959096;28;90869;-31
2022/03/09 11:23:28;;;;;;;19.52;10.48;;;11.90;49.90;;;;;;4959413;28;89499;-32
2022/03/09 11:26:00;;;;;;;13.05;8.60;;;12.00;50.40;;;;;;4959580;28;89489;-37
2022/03/09 11:28:29;;;;;;;13.13;10.20;;;12.20;49.40;;;;;;4959958;28;89812;-31
2022/03/09 11:31:15;;;;;;;14.05;10.43;;;12.20;50.10;;;;;;4958362;28;88770;-31
2022/03/09 11:33:43;;;;;;;13.48;10.73;;;12.20;49.40;;;;;;4959496;28;89571;-32
2022/03/09 11:36:21;;;;;;;11.35;9.07;;;12.20;50.70;;;;;;4958119;28;88352;-32
2022/03/09 11:38:48;;;;;;;18.48;10.18;;;12.30;49.50;;;;;;4960381;28;90194;-32
2022/03/09 11:41:22;;;;;;;12.98;10.27;;;12.30;50.00;;;;;;4958871;28;90116;-34
2022/03/09 11:43:50;;;;;;;12.18;9.75;;;12.40;50.20;;;;;;4958878;28;89789;-34
2022/03/09 11:46:16;;;;;;;13.40;11.82;;;12.50;48.90;;;;;;4959135;28;89214;-37
2022/03/09 11:48:52;;;;;;;12.10;10.30;;;12.50;49.00;;;;;;4958548;28;90720;-32
2022/03/09 11:51:22;;;;;;;13.88;10.45;;;12.60;49.50;;;;;;4958491;28;90304;-33
2022/03/09 11:53:50;;;;;;;13.10;10.38;;;12.60;48.60;;;;;;4958368;28;89786;-35
2022/03/09 11:56:24;;;;;;;11.15;9.77;;;12.60;49.20;;;;;;4958910;28;88988;-34
2022/03/09 11:59:08;;;;;;;14.77;11.38;;;12.60;49.60;;;;;;4959248;28;90307;-34
2022/03/09 12:01:59;;;;;;;15.63;9.95;;;12.70;49.30;;;;;;4958689;28;88286;-36
2022/03/09 12:04:41;;;;;;;11.90;10.75;;;12.70;49.10;;;;;;4959360;28;89534;-33
2022/03/09 12:07:10;;;;;;;12.63;10.90;;;12.80;48.10;;;;;;4958978;28;89858;-33
2022/03/09 12:09:55;;;;;;;10.80;9.57;;;12.80;48.10;;;;;;4988510;22;90353;-34
2022/03/09 12:12:21;;;;;;;16.52;9.90;;;12.80;48.60;;;;;;4958721;28;90926;-34
2022/03/09 12:15:03;;;;;;;10.82;9.15;;;13.00;47.00;;;;;;4959417;28;90459;-33
2022/03/09 12:17:34;;;;;;;12.05;10.73;;;13.00;45.90;;;;;;4959360;28;89055;-35
2022/03/09 12:20:20;;;;;;;12.70;9.98;;;12.80;47.90;;;;;;4958481;28;90297;-35
2022/03/09 12:22:55;;;;;;;11.73;9.70;;;13.00;45.80;;;;;;4958514;28;89535;-32
2022/03/09 12:25:45;;;;;;;15.10;11.32;;;12.90;46.40;;;;;;4959012;28;89448;-34
2022/03/09 12:28:25;;;;;;;13.07;11.13;;;12.90;45.80;;;;;;4959384;28;89297;-32
2022/03/09 12:30:53;;;;;;;13.10;9.93;;;12.90;47.20;;;;;;4958655;28;90040;-34
2022/03/09 12:33:27;;;;;;;11.85;9.43;;;13.00;45.70;;;;;;4957484;28;89800;-32
2022/03/09 12:35:54;;;;;;;12.25;10.00;;;13.00;45.60;;;;;;4959072;28;89530;-35
2022/03/09 12:38:20;;;;;;;11.82;8.98;;;13.10;44.40;;;;;;4959034;28;90032;-34